sensor_id;sensor_type;location;lat;lon;timestamp;P1;durP1;ratioP1;P2;durP2;ratioP2
4148;SDS011;2088;51.032;7.082;2023-12-20T00:00:59;9.13;;;5.67;;
4148;SDS011;2088;51.032;7.082;2023-12-20T00:03:26;8.33;;;5.37;;
4148;SDS011;2088;51.032;7.082;2023-12-20T00:05:54;7.50;;;4.90;;
4148;SDS011;2088;51.032;7.082;2023-12-20T00:08:21;7.23;;;5.80;;
4148;SDS011;2088;51.032;7.082;2023-12-20T00:10:49;8.50;;;4.03;;
4148;SDS011;2088;51.032;7.082;2023-12-20T00:13:16;6.47;;;3.83;;
4148;SDS011;2088;51.032;7.082;2023-12-20T00:15:43;8.97;;;5.27;;
4148;SDS011;2088;51.032;7.082;2023-12-20T00:18:10;9.10;;;5.40;;
4148;SDS011;2088;51.032;7.082;2023-12-20T00:20:37;10.10;;;6.40;;
4148;SDS011;2088;51.032;7.082;2023-12-20T00:23:05;9.13;;;5.77;;
4148;SDS011;2088;51.032;7.082;2023-12-20T00:25:33;7.80;;;5.10;;
4148;SDS011;2088;51.032;7.082;2023-12-20T00:28:00;6.30;;;4.70;;
4148;SDS011;2088;51.032;7.082;2023-12-20T00:30:28;5.57;;;3.97;;
4148;SDS011;2088;51.032;7.082;2023-12-20T00:32:55;9.43;;;4.40;;
4148;SDS011;2088;51.032;7.082;2023-12-20T00:35:22;10.37;;;5.13;;
4148;SDS011;2088;51.032;7.082;2023-12-20T00:37:49;8.17;;;5.73;;
4148;SDS011;2088;51.032;7.082;2023-12-20T00:40:17;9.27;;;4.60;;
4148;SDS011;2088;51.032;7.082;2023-12-20T00:42:45;5.10;;;3.20;;
4148;SDS011;2088;51.032;7.082;2023-12-20T00:45:13;5.03;;;2.73;;
4148;SDS011;2088;51.032;7.082;2023-12-20T00:47:40;6.63;;;2.57;;
4148;SDS011;2088;51.032;7.082;2023-12-20T00:50:08;2.63;;;2.20;;
4148;SDS011;2088;51.032;7.082;2023-12-20T00:52:35;5.77;;;3.30;;
4148;SDS011;2088;51.032;7.082;2023-12-20T00:55:02;5.97;;;3.10;;
4148;SDS011;2088;51.032;7.082;2023-12-20T00:57:31;9.70;;;3.40;;
4148;SDS011;2088;51.032;7.082;2023-12-20T00:59:58;5.30;;;3.50;;
4148;SDS011;2088;51.032;7.082;2023-12-20T01:02:25;6.40;;;3.40;;
4148;SDS011;2088;51.032;7.082;2023-12-20T01:04:53;5.67;;;3.33;;
4148;SDS011;2088;51.032;7.082;2023-12-20T01:07:20;4.70;;;2.90;;
4148;SDS011;2088;51.032;7.082;2023-12-20T01:09:47;4.07;;;2.40;;
4148;SDS011;2088;51.032;7.082;2023-12-20T01:12:14;5.90;;;2.87;;
4148;SDS011;2088;51.032;7.082;2023-12-20T01:14:42;5.03;;;1.97;;
4148;SDS011;2088;51.032;7.082;2023-12-20T01:17:09;4.30;;;2.70;;
4148;SDS011;2088;51.032;7.082;2023-12-20T01:19:37;4.47;;;2.17;;
4148;SDS011;2088;51.032;7.082;2023-12-20T01:22:04;10.33;;;2.60;;
4148;SDS011;2088;51.032;7.082;2023-12-20T01:24:31;5.30;;;2.47;;
4148;SDS011;2088;51.032;7.082;2023-12-20T01:26:58;8.43;;;1.67;;
4148;SDS011;2088;51.032;7.082;2023-12-20T01:29:25;4.30;;;2.63;;
4148;SDS011;2088;51.032;7.082;2023-12-20T01:31:53;4.83;;;2.60;;
4148;SDS011;2088;51.032;7.082;2023-12-20T01:34:20;10.10;;;3.87;;
4148;SDS011;2088;51.032;7.082;2023-12-20T01:36:48;5.03;;;1.93;;
4148;SDS011;2088;51.032;7.082;2023-12-20T01:39:15;7.17;;;2.87;;
4148;SDS011;2088;51.032;7.082;2023-12-20T01:41:42;6.63;;;2.90;;
4148;SDS011;2088;51.032;7.082;2023-12-20T01:44:09;5.70;;;4.00;;
4148;SDS011;2088;51.032;7.082;2023-12-20T01:46:36;6.07;;;3.73;;
4148;SDS011;2088;51.032;7.082;2023-12-20T01:49:04;10.30;;;3.47;;
4148;SDS011;2088;51.032;7.082;2023-12-20T01:51:31;9.50;;;4.07;;
4148;SDS011;2088;51.032;7.082;2023-12-20T01:53:59;6.80;;;3.90;;
4148;SDS011;2088;51.032;7.082;2023-12-20T01:56:26;7.27;;;4.43;;
4148;SDS011;2088;51.032;7.082;2023-12-20T01:58:53;9.33;;;3.83;;
4148;SDS011;2088;51.032;7.082;2023-12-20T02:01:21;12.20;;;4.57;;
4148;SDS011;2088;51.032;7.082;2023-12-20T02:03:48;7.77;;;4.30;;
4148;SDS011;2088;51.032;7.082;2023-12-20T02:06:17;13.40;;;5.60;;
4148;SDS011;2088;51.032;7.082;2023-12-20T02:08:45;12.63;;;5.33;;
4148;SDS011;2088;51.032;7.082;2023-12-20T02:11:12;9.33;;;4.73;;
4148;SDS011;2088;51.032;7.082;2023-12-20T02:13:39;7.70;;;4.63;;
4148;SDS011;2088;51.032;7.082;2023-12-20T02:16:06;12.60;;;4.53;;
4148;SDS011;2088;51.032;7.082;2023-12-20T02:18:33;8.73;;;4.60;;
4148;SDS011;2088;51.032;7.082;2023-12-20T02:21:00;13.77;;;5.57;;
4148;SDS011;2088;51.032;7.082;2023-12-20T02:23:29;10.57;;;5.73;;
4148;SDS011;2088;51.032;7.082;2023-12-20T02:25:56;10.10;;;5.97;;
4148;SDS011;2088;51.032;7.082;2023-12-20T02:28:23;11.70;;;4.63;;
4148;SDS011;2088;51.032;7.082;2023-12-20T02:30:50;9.73;;;5.20;;
4148;SDS011;2088;51.032;7.082;2023-12-20T02:33:17;13.30;;;4.90;;
4148;SDS011;2088;51.032;7.082;2023-12-20T02:35:44;12.77;;;5.13;;
4148;SDS011;2088;51.032;7.082;2023-12-20T02:38:12;11.73;;;5.03;;
4148;SDS011;2088;51.032;7.082;2023-12-20T02:40:40;9.63;;;4.50;;
4148;SDS011;2088;51.032;7.082;2023-12-20T02:43:07;10.20;;;4.57;;
4148;SDS011;2088;51.032;7.082;2023-12-20T02:45:35;16.83;;;5.10;;
4148;SDS011;2088;51.032;7.082;2023-12-20T02:48:02;9.53;;;4.93;;
4148;SDS011;2088;51.032;7.082;2023-12-20T02:50:29;13.57;;;6.13;;
4148;SDS011;2088;51.032;7.082;2023-12-20T02:52:56;6.10;;;3.57;;
4148;SDS011;2088;51.032;7.082;2023-12-20T02:55:23;11.13;;;5.23;;
4148;SDS011;2088;51.032;7.082;2023-12-20T02:57:51;10.00;;;4.33;;
4148;SDS011;2088;51.032;7.082;2023-12-20T03:00:18;5.87;;;2.90;;
4148;SDS011;2088;51.032;7.082;2023-12-20T03:02:46;6.93;;;3.20;;
4148;SDS011;2088;51.032;7.082;2023-12-20T03:05:13;9.77;;;4.30;;
4148;SDS011;2088;51.032;7.082;2023-12-20T03:07:40;10.00;;;5.13;;
4148;SDS011;2088;51.032;7.082;2023-12-20T03:10:07;9.77;;;4.33;;
4148;SDS011;2088;51.032;7.082;2023-12-20T03:12:35;19.20;;;5.10;;
4148;SDS011;2088;51.032;7.082;2023-12-20T03:15:03;13.90;;;4.17;;
4148;SDS011;2088;51.032;7.082;2023-12-20T03:17:30;13.00;;;4.87;;
4148;SDS011;2088;51.032;7.082;2023-12-20T03:19:57;13.83;;;4.00;;
4148;SDS011;2088;51.032;7.082;2023-12-20T03:22:25;24.10;;;5.10;;
4148;SDS011;2088;51.032;7.082;2023-12-20T03:24:52;14.80;;;3.33;;
4148;SDS011;2088;51.032;7.082;2023-12-20T03:27:19;5.50;;;2.50;;
4148;SDS011;2088;51.032;7.082;2023-12-20T03:29:46;3.53;;;2.57;;
4148;SDS011;2088;51.032;7.082;2023-12-20T03:32:14;1.67;;;1.57;;
4148;SDS011;2088;51.032;7.082;2023-12-20T03:34:41;9.53;;;2.10;;
4148;SDS011;2088;51.032;7.082;2023-12-20T03:37:09;9.33;;;2.33;;
4148;SDS011;2088;51.032;7.082;2023-12-20T03:39:36;3.13;;;1.47;;
4148;SDS011;2088;51.032;7.082;2023-12-20T03:42:03;9.20;;;2.00;;
4148;SDS011;2088;51.032;7.082;2023-12-20T03:44:30;5.20;;;1.90;;
4148;SDS011;2088;51.032;7.082;2023-12-20T03:46:57;3.27;;;1.60;;
4148;SDS011;2088;51.032;7.082;2023-12-20T03:49:26;6.30;;;2.30;;
4148;SDS011;2088;51.032;7.082;2023-12-20T03:51:53;6.63;;;1.90;;
4148;SDS011;2088;51.032;7.082;2023-12-20T03:54:20;6.83;;;2.07;;
4148;SDS011;2088;51.032;7.082;2023-12-20T03:56:47;4.47;;;2.43;;
4148;SDS011;2088;51.032;7.082;2023-12-20T03:59:14;7.43;;;1.40;;
4148;SDS011;2088;51.032;7.082;2023-12-20T04:01:43;14.57;;;3.03;;
4148;SDS011;2088;51.032;7.082;2023-12-20T04:04:10;6.67;;;1.80;;
4148;SDS011;2088;51.032;7.082;2023-12-20T04:06:39;21.53;;;1.83;;
4148;SDS011;2088;51.032;7.082;2023-12-20T04:09:06;3.40;;;1.70;;
4148;SDS011;2088;51.032;7.082;2023-12-20T04:11:34;15.57;;;4.00;;
4148;SDS011;2088;51.032;7.082;2023-12-20T04:14:01;7.30;;;2.40;;
4148;SDS011;2088;51.032;7.082;2023-12-20T04:16:29;4.77;;;2.30;;
4148;SDS011;2088;51.032;7.082;2023-12-20T04:18:56;8.63;;;1.83;;
4148;SDS011;2088;51.032;7.082;2023-12-20T04:21:24;11.20;;;2.60;;
4148;SDS011;2088;51.032;7.082;2023-12-20T04:23:52;9.33;;;1.50;;
4148;SDS011;2088;51.032;7.082;2023-12-20T04:26:19;7.33;;;2.10;;
4148;SDS011;2088;51.032;7.082;2023-12-20T04:28:46;4.83;;;1.47;;
4148;SDS011;2088;51.032;7.082;2023-12-20T04:31:13;8.17;;;2.00;;
4148;SDS011;2088;51.032;7.082;2023-12-20T04:33:40;5.00;;;2.00;;
4148;SDS011;2088;51.032;7.082;2023-12-20T04:36:08;10.40;;;2.80;;
4148;SDS011;2088;51.032;7.082;2023-12-20T04:38:35;11.80;;;2.67;;
4148;SDS011;2088;51.032;7.082;2023-12-20T04:41:03;3.00;;;1.67;;
4148;SDS011;2088;51.032;7.082;2023-12-20T04:43:30;3.53;;;2.13;;
4148;SDS011;2088;51.032;7.082;2023-12-20T04:45:57;11.67;;;2.10;;
4148;SDS011;2088;51.032;7.082;2023-12-20T04:48:25;3.13;;;2.07;;
4148;SDS011;2088;51.032;7.082;2023-12-20T04:50:52;3.90;;;2.00;;
4148;SDS011;2088;51.032;7.082;2023-12-20T04:53:19;4.53;;;2.07;;
4148;SDS011;2088;51.032;7.082;2023-12-20T04:55:46;3.60;;;2.80;;
4148;SDS011;2088;51.032;7.082;2023-12-20T04:58:14;6.53;;;2.37;;
4148;SDS011;2088;51.032;7.082;2023-12-20T05:00:42;13.07;;;2.00;;
4148;SDS011;2088;51.032;7.082;2023-12-20T05:03:09;10.03;;;2.30;;
4148;SDS011;2088;51.032;7.082;2023-12-20T05:05:36;10.53;;;2.47;;
4148;SDS011;2088;51.032;7.082;2023-12-20T05:08:04;24.57;;;2.90;;
4148;SDS011;2088;51.032;7.082;2023-12-20T05:10:31;6.70;;;2.33;;
4148;SDS011;2088;51.032;7.082;2023-12-20T05:12:58;6.70;;;2.27;;
4148;SDS011;2088;51.032;7.082;2023-12-20T05:15:26;9.83;;;3.10;;
4148;SDS011;2088;51.032;7.082;2023-12-20T05:17:53;13.43;;;2.90;;
4148;SDS011;2088;51.032;7.082;2023-12-20T05:20:21;4.97;;;2.27;;
4148;SDS011;2088;51.032;7.082;2023-12-20T05:22:48;10.27;;;2.87;;
4148;SDS011;2088;51.032;7.082;2023-12-20T05:25:15;11.70;;;2.80;;
4148;SDS011;2088;51.032;7.082;2023-12-20T05:27:42;4.90;;;2.57;;
4148;SDS011;2088;51.032;7.082;2023-12-20T05:30:10;8.10;;;2.77;;
4148;SDS011;2088;51.032;7.082;2023-12-20T05:32:38;9.20;;;2.13;;
4148;SDS011;2088;51.032;7.082;2023-12-20T05:35:05;3.93;;;2.00;;
4148;SDS011;2088;51.032;7.082;2023-12-20T05:37:32;9.50;;;2.63;;
4148;SDS011;2088;51.032;7.082;2023-12-20T05:39:59;7.53;;;2.70;;
4148;SDS011;2088;51.032;7.082;2023-12-20T05:42:27;12.20;;;2.73;;
4148;SDS011;2088;51.032;7.082;2023-12-20T05:44:54;29.37;;;2.93;;
4148;SDS011;2088;51.032;7.082;2023-12-20T05:47:21;7.60;;;2.37;;
4148;SDS011;2088;51.032;7.082;2023-12-20T05:49:49;14.40;;;3.07;;
4148;SDS011;2088;51.032;7.082;2023-12-20T05:52:16;7.63;;;2.40;;
4148;SDS011;2088;51.032;7.082;2023-12-20T05:54:43;16.00;;;3.20;;
4148;SDS011;2088;51.032;7.082;2023-12-20T05:57:10;10.33;;;2.37;;
4148;SDS011;2088;51.032;7.082;2023-12-20T05:59:37;14.83;;;3.50;;
4148;SDS011;2088;51.032;7.082;2023-12-20T06:02:05;18.67;;;4.07;;
4148;SDS011;2088;51.032;7.082;2023-12-20T06:04:32;5.40;;;2.17;;
4148;SDS011;2088;51.032;7.082;2023-12-20T06:07:00;3.83;;;2.43;;
4148;SDS011;2088;51.032;7.082;2023-12-20T06:09:28;6.10;;;2.60;;
4148;SDS011;2088;51.032;7.082;2023-12-20T06:11:55;12.00;;;3.40;;
4148;SDS011;2088;51.032;7.082;2023-12-20T06:14:22;10.93;;;2.90;;
4148;SDS011;2088;51.032;7.082;2023-12-20T06:16:50;10.83;;;2.67;;
4148;SDS011;2088;51.032;7.082;2023-12-20T06:19:17;6.83;;;2.53;;
4148;SDS011;2088;51.032;7.082;2023-12-20T06:21:44;5.80;;;2.20;;
4148;SDS011;2088;51.032;7.082;2023-12-20T06:24:12;18.53;;;2.63;;
4148;SDS011;2088;51.032;7.082;2023-12-20T06:26:39;6.37;;;2.60;;
4148;SDS011;2088;51.032;7.082;2023-12-20T06:29:08;10.00;;;2.63;;
4148;SDS011;2088;51.032;7.082;2023-12-20T06:31:35;3.30;;;2.67;;
4148;SDS011;2088;51.032;7.082;2023-12-20T06:34:02;10.00;;;2.83;;
4148;SDS011;2088;51.032;7.082;2023-12-20T06:36:29;14.90;;;2.13;;
4148;SDS011;2088;51.032;7.082;2023-12-20T06:38:56;6.50;;;2.43;;
4148;SDS011;2088;51.032;7.082;2023-12-20T06:41:25;9.97;;;3.50;;
4148;SDS011;2088;51.032;7.082;2023-12-20T06:43:52;17.43;;;3.60;;
4148;SDS011;2088;51.032;7.082;2023-12-20T06:46:19;9.30;;;2.90;;
4148;SDS011;2088;51.032;7.082;2023-12-20T06:48:46;11.80;;;2.80;;
4148;SDS011;2088;51.032;7.082;2023-12-20T06:51:14;8.57;;;3.20;;
4148;SDS011;2088;51.032;7.082;2023-12-20T06:53:41;4.00;;;2.30;;
4148;SDS011;2088;51.032;7.082;2023-12-20T06:56:09;5.13;;;2.20;;
4148;SDS011;2088;51.032;7.082;2023-12-20T06:58:38;10.67;;;1.73;;
4148;SDS011;2088;51.032;7.082;2023-12-20T07:01:05;8.20;;;1.80;;
4148;SDS011;2088;51.032;7.082;2023-12-20T07:03:37;17.30;;;2.03;;
4148;SDS011;2088;51.032;7.082;2023-12-20T07:06:04;17.33;;;3.50;;
4148;SDS011;2088;51.032;7.082;2023-12-20T07:08:31;15.13;;;2.57;;
4148;SDS011;2088;51.032;7.082;2023-12-20T07:10:58;6.47;;;2.27;;
4148;SDS011;2088;51.032;7.082;2023-12-20T07:13:25;8.63;;;2.93;;
4148;SDS011;2088;51.032;7.082;2023-12-20T07:15:54;15.90;;;2.77;;
4148;SDS011;2088;51.032;7.082;2023-12-20T07:18:21;6.33;;;2.13;;
4148;SDS011;2088;51.032;7.082;2023-12-20T07:20:48;13.47;;;3.70;;
4148;SDS011;2088;51.032;7.082;2023-12-20T07:23:15;4.60;;;1.97;;
4148;SDS011;2088;51.032;7.082;2023-12-20T07:25:42;4.40;;;1.80;;
4148;SDS011;2088;51.032;7.082;2023-12-20T07:28:09;5.87;;;2.47;;
4148;SDS011;2088;51.032;7.082;2023-12-20T07:30:36;9.00;;;2.30;;
4148;SDS011;2088;51.032;7.082;2023-12-20T07:33:05;9.40;;;2.27;;
4148;SDS011;2088;51.032;7.082;2023-12-20T07:35:33;9.27;;;2.33;;
4148;SDS011;2088;51.032;7.082;2023-12-20T07:38:01;12.83;;;3.13;;
4148;SDS011;2088;51.032;7.082;2023-12-20T07:40:28;7.00;;;2.53;;
4148;SDS011;2088;51.032;7.082;2023-12-20T07:42:55;7.30;;;2.40;;
4148;SDS011;2088;51.032;7.082;2023-12-20T07:45:23;7.73;;;1.77;;
4148;SDS011;2088;51.032;7.082;2023-12-20T07:47:50;7.53;;;2.03;;
4148;SDS011;2088;51.032;7.082;2023-12-20T07:50:18;13.03;;;2.93;;
4148;SDS011;2088;51.032;7.082;2023-12-20T07:52:45;8.73;;;2.40;;
4148;SDS011;2088;51.032;7.082;2023-12-20T07:55:13;4.67;;;1.93;;
4148;SDS011;2088;51.032;7.082;2023-12-20T07:57:40;11.40;;;2.20;;
4148;SDS011;2088;51.032;7.082;2023-12-20T08:00:07;8.43;;;2.57;;
4148;SDS011;2088;51.032;7.082;2023-12-20T08:02:34;7.93;;;2.57;;
4148;SDS011;2088;51.032;7.082;2023-12-20T08:05:01;5.90;;;2.33;;
4148;SDS011;2088;51.032;7.082;2023-12-20T08:07:30;3.70;;;2.37;;
4148;SDS011;2088;51.032;7.082;2023-12-20T08:09:57;5.73;;;2.27;;
4148;SDS011;2088;51.032;7.082;2023-12-20T08:12:24;16.30;;;2.50;;
4148;SDS011;2088;51.032;7.082;2023-12-20T08:14:52;7.03;;;2.47;;
4148;SDS011;2088;51.032;7.082;2023-12-20T08:17:19;4.20;;;1.80;;
4148;SDS011;2088;51.032;7.082;2023-12-20T08:19:48;6.50;;;1.97;;
4148;SDS011;2088;51.032;7.082;2023-12-20T08:22:15;15.03;;;2.70;;
4148;SDS011;2088;51.032;7.082;2023-12-20T08:24:43;7.10;;;2.93;;
4148;SDS011;2088;51.032;7.082;2023-12-20T08:27:10;4.93;;;2.50;;
4148;SDS011;2088;51.032;7.082;2023-12-20T08:29:37;4.23;;;2.00;;
4148;SDS011;2088;51.032;7.082;2023-12-20T08:32:04;7.13;;;2.50;;
4148;SDS011;2088;51.032;7.082;2023-12-20T08:34:32;18.50;;;2.30;;
4148;SDS011;2088;51.032;7.082;2023-12-20T08:36:59;9.70;;;2.27;;
4148;SDS011;2088;51.032;7.082;2023-12-20T08:39:26;11.07;;;3.37;;
4148;SDS011;2088;51.032;7.082;2023-12-20T08:41:56;16.40;;;3.80;;
4148;SDS011;2088;51.032;7.082;2023-12-20T08:44:23;3.67;;;2.50;;
4148;SDS011;2088;51.032;7.082;2023-12-20T08:46:50;7.80;;;1.93;;
4148;SDS011;2088;51.032;7.082;2023-12-20T08:49:17;29.57;;;4.90;;
4148;SDS011;2088;51.032;7.082;2023-12-20T08:51:45;7.50;;;2.70;;
4148;SDS011;2088;51.032;7.082;2023-12-20T08:54:12;10.87;;;2.90;;
4148;SDS011;2088;51.032;7.082;2023-12-20T08:56:39;9.70;;;2.10;;
4148;SDS011;2088;51.032;7.082;2023-12-20T08:59:07;7.43;;;2.50;;
4148;SDS011;2088;51.032;7.082;2023-12-20T09:01:34;8.67;;;2.57;;
4148;SDS011;2088;51.032;7.082;2023-12-20T09:04:01;12.43;;;2.80;;
4148;SDS011;2088;51.032;7.082;2023-12-20T09:06:28;12.03;;;2.80;;
4148;SDS011;2088;51.032;7.082;2023-12-20T09:08:55;10.40;;;2.57;;
4148;SDS011;2088;51.032;7.082;2023-12-20T09:11:22;10.10;;;2.80;;
4148;SDS011;2088;51.032;7.082;2023-12-20T09:13:50;18.70;;;3.03;;
4148;SDS011;2088;51.032;7.082;2023-12-20T09:16:18;5.73;;;2.10;;
4148;SDS011;2088;51.032;7.082;2023-12-20T09:18:45;5.50;;;2.00;;
4148;SDS011;2088;51.032;7.082;2023-12-20T09:21:12;4.53;;;2.10;;
4148;SDS011;2088;51.032;7.082;2023-12-20T09:23:39;16.03;;;3.10;;
4148;SDS011;2088;51.032;7.082;2023-12-20T09:26:06;14.03;;;2.80;;
4148;SDS011;2088;51.032;7.082;2023-12-20T09:28:33;17.10;;;2.30;;
4148;SDS011;2088;51.032;7.082;2023-12-20T09:31:02;19.03;;;3.00;;
4148;SDS011;2088;51.032;7.082;2023-12-20T09:33:31;7.73;;;2.50;;
4148;SDS011;2088;51.032;7.082;2023-12-20T09:35:58;11.30;;;3.00;;
4148;SDS011;2088;51.032;7.082;2023-12-20T09:38:25;5.37;;;2.40;;
4148;SDS011;2088;51.032;7.082;2023-12-20T09:40:52;11.63;;;3.13;;
4148;SDS011;2088;51.032;7.082;2023-12-20T09:43:20;8.40;;;2.47;;
4148;SDS011;2088;51.032;7.082;2023-12-20T09:45:50;5.93;;;1.90;;
4148;SDS011;2088;51.032;7.082;2023-12-20T09:48:18;3.63;;;1.80;;
4148;SDS011;2088;51.032;7.082;2023-12-20T09:50:46;21.97;;;2.70;;
4148;SDS011;2088;51.032;7.082;2023-12-20T09:53:14;6.43;;;1.43;;
4148;SDS011;2088;51.032;7.082;2023-12-20T09:55:42;5.27;;;2.10;;
4148;SDS011;2088;51.032;7.082;2023-12-20T09:58:09;9.63;;;4.57;;
4148;SDS011;2088;51.032;7.082;2023-12-20T10:00:36;5.40;;;2.17;;
4148;SDS011;2088;51.032;7.082;2023-12-20T10:03:03;8.03;;;2.10;;
4148;SDS011;2088;51.032;7.082;2023-12-20T10:05:31;5.30;;;1.73;;
4148;SDS011;2088;51.032;7.082;2023-12-20T10:08:00;5.03;;;2.37;;
4148;SDS011;2088;51.032;7.082;2023-12-20T10:10:27;7.90;;;1.53;;
4148;SDS011;2088;51.032;7.082;2023-12-20T10:13:01;7.70;;;3.07;;
4148;SDS011;2088;51.032;7.082;2023-12-20T10:15:28;7.90;;;2.10;;
4148;SDS011;2088;51.032;7.082;2023-12-20T10:17:55;3.63;;;2.13;;
4148;SDS011;2088;51.032;7.082;2023-12-20T10:20:23;7.33;;;1.73;;
4148;SDS011;2088;51.032;7.082;2023-12-20T10:22:50;4.80;;;1.57;;
4148;SDS011;2088;51.032;7.082;2023-12-20T10:25:20;8.27;;;2.47;;
4148;SDS011;2088;51.032;7.082;2023-12-20T10:27:47;4.60;;;1.13;;
4148;SDS011;2088;51.032;7.082;2023-12-20T10:30:14;2.30;;;1.13;;
4148;SDS011;2088;51.032;7.082;2023-12-20T10:32:41;6.00;;;1.70;;
4148;SDS011;2088;51.032;7.082;2023-12-20T10:35:08;8.23;;;1.73;;
4148;SDS011;2088;51.032;7.082;2023-12-20T10:37:36;4.13;;;1.53;;
4148;SDS011;2088;51.032;7.082;2023-12-20T10:40:03;16.50;;;2.40;;
4148;SDS011;2088;51.032;7.082;2023-12-20T10:42:32;4.63;;;1.63;;
4148;SDS011;2088;51.032;7.082;2023-12-20T10:44:59;8.50;;;2.70;;
4148;SDS011;2088;51.032;7.082;2023-12-20T10:47:27;13.60;;;2.03;;
4148;SDS011;2088;51.032;7.082;2023-12-20T10:49:53;5.93;;;2.03;;
4148;SDS011;2088;51.032;7.082;2023-12-20T10:52:22;14.37;;;1.97;;
4148;SDS011;2088;51.032;7.082;2023-12-20T10:54:49;8.83;;;3.33;;
4148;SDS011;2088;51.032;7.082;2023-12-20T10:57:17;7.80;;;2.50;;
4148;SDS011;2088;51.032;7.082;2023-12-20T10:59:46;9.73;;;2.00;;
4148;SDS011;2088;51.032;7.082;2023-12-20T11:02:14;5.30;;;1.80;;
4148;SDS011;2088;51.032;7.082;2023-12-20T11:04:43;10.97;;;2.37;;
4148;SDS011;2088;51.032;7.082;2023-12-20T11:07:17;10.10;;;3.17;;
4148;SDS011;2088;51.032;7.082;2023-12-20T11:09:48;3.20;;;2.03;;
4148;SDS011;2088;51.032;7.082;2023-12-20T11:12:16;3.37;;;1.50;;
4148;SDS011;2088;51.032;7.082;2023-12-20T11:14:47;10.70;;;2.50;;
4148;SDS011;2088;51.032;7.082;2023-12-20T11:17:14;5.63;;;1.80;;
4148;SDS011;2088;51.032;7.082;2023-12-20T11:22:29;3.17;;;1.60;;
4148;SDS011;2088;51.032;7.082;2023-12-20T11:24:58;18.13;;;1.80;;
4148;SDS011;2088;51.032;7.082;2023-12-20T11:27:25;7.10;;;1.80;;
4148;SDS011;2088;51.032;7.082;2023-12-20T11:29:54;6.20;;;2.17;;
4148;SDS011;2088;51.032;7.082;2023-12-20T11:32:27;13.50;;;2.70;;
4148;SDS011;2088;51.032;7.082;2023-12-20T11:34:55;5.30;;;1.70;;
4148;SDS011;2088;51.032;7.082;2023-12-20T11:37:25;4.13;;;1.60;;
4148;SDS011;2088;51.032;7.082;2023-12-20T11:39:55;6.53;;;1.50;;
4148;SDS011;2088;51.032;7.082;2023-12-20T11:42:22;5.70;;;2.23;;
4148;SDS011;2088;51.032;7.082;2023-12-20T11:44:49;9.90;;;2.03;;
4148;SDS011;2088;51.032;7.082;2023-12-20T11:47:18;10.07;;;1.60;;
4148;SDS011;2088;51.032;7.082;2023-12-20T11:49:46;4.80;;;2.37;;
4148;SDS011;2088;51.032;7.082;2023-12-20T11:52:14;7.23;;;2.03;;
4148;SDS011;2088;51.032;7.082;2023-12-20T11:54:41;5.17;;;1.93;;
4148;SDS011;2088;51.032;7.082;2023-12-20T11:57:08;6.60;;;2.10;;
4148;SDS011;2088;51.032;7.082;2023-12-20T11:59:36;6.00;;;1.80;;
4148;SDS011;2088;51.032;7.082;2023-12-20T12:02:03;13.43;;;3.37;;
4148;SDS011;2088;51.032;7.082;2023-12-20T12:04:31;9.80;;;2.50;;
4148;SDS011;2088;51.032;7.082;2023-12-20T12:06:58;5.50;;;2.30;;
4148;SDS011;2088;51.032;7.082;2023-12-20T12:09:26;5.13;;;1.53;;
4148;SDS011;2088;51.032;7.082;2023-12-20T12:11:53;7.00;;;1.80;;
4148;SDS011;2088;51.032;7.082;2023-12-20T12:14:20;12.60;;;1.80;;
4148;SDS011;2088;51.032;7.082;2023-12-20T12:16:47;3.00;;;1.77;;
4148;SDS011;2088;51.032;7.082;2023-12-20T12:19:21;5.13;;;2.37;;
4148;SDS011;2088;51.032;7.082;2023-12-20T12:21:50;11.80;;;1.80;;
4148;SDS011;2088;51.032;7.082;2023-12-20T12:24:20;2.83;;;1.70;;
4148;SDS011;2088;51.032;7.082;2023-12-20T12:26:49;12.70;;;2.43;;
4148;SDS011;2088;51.032;7.082;2023-12-20T12:29:17;9.57;;;1.83;;
4148;SDS011;2088;51.032;7.082;2023-12-20T12:31:44;1.40;;;1.30;;
4148;SDS011;2088;51.032;7.082;2023-12-20T12:34:11;7.03;;;2.30;;
4148;SDS011;2088;51.032;7.082;2023-12-20T12:36:39;17.30;;;2.27;;
4148;SDS011;2088;51.032;7.082;2023-12-20T12:39:07;7.53;;;2.63;;
4148;SDS011;2088;51.032;7.082;2023-12-20T12:41:34;6.70;;;2.10;;
4148;SDS011;2088;51.032;7.082;2023-12-20T12:44:02;9.17;;;1.43;;
4148;SDS011;2088;51.032;7.082;2023-12-20T12:46:29;5.17;;;1.50;;
4148;SDS011;2088;51.032;7.082;2023-12-20T12:48:56;6.57;;;2.37;;
4148;SDS011;2088;51.032;7.082;2023-12-20T12:51:23;11.93;;;2.07;;
4148;SDS011;2088;51.032;7.082;2023-12-20T12:53:50;7.80;;;3.00;;
4148;SDS011;2088;51.032;7.082;2023-12-20T12:56:18;14.10;;;3.20;;
4148;SDS011;2088;51.032;7.082;2023-12-20T12:58:47;8.10;;;2.53;;
4148;SDS011;2088;51.032;7.082;2023-12-20T13:01:14;9.97;;;2.77;;
4148;SDS011;2088;51.032;7.082;2023-12-20T13:03:41;3.60;;;2.67;;
4148;SDS011;2088;51.032;7.082;2023-12-20T13:06:08;5.60;;;2.80;;
4148;SDS011;2088;51.032;7.082;2023-12-20T13:08:36;3.37;;;2.07;;
4148;SDS011;2088;51.032;7.082;2023-12-20T13:11:03;6.50;;;2.10;;
4148;SDS011;2088;51.032;7.082;2023-12-20T13:13:31;6.97;;;2.30;;
4148;SDS011;2088;51.032;7.082;2023-12-20T13:15:58;9.73;;;2.50;;
4148;SDS011;2088;51.032;7.082;2023-12-20T13:18:26;18.83;;;3.03;;
4148;SDS011;2088;51.032;7.082;2023-12-20T13:20:53;7.00;;;3.03;;
4148;SDS011;2088;51.032;7.082;2023-12-20T13:23:20;6.27;;;2.57;;
4148;SDS011;2088;51.032;7.082;2023-12-20T13:25:47;16.80;;;3.20;;
4148;SDS011;2088;51.032;7.082;2023-12-20T13:28:15;8.70;;;3.83;;
4148;SDS011;2088;51.032;7.082;2023-12-20T13:30:43;6.80;;;2.73;;
4148;SDS011;2088;51.032;7.082;2023-12-20T13:33:10;7.33;;;2.40;;
4148;SDS011;2088;51.032;7.082;2023-12-20T13:35:38;4.50;;;2.40;;
4148;SDS011;2088;51.032;7.082;2023-12-20T13:38:05;5.90;;;2.80;;
4148;SDS011;2088;51.032;7.082;2023-12-20T13:40:32;3.00;;;2.00;;
4148;SDS011;2088;51.032;7.082;2023-12-20T13:42:59;12.20;;;2.60;;
4148;SDS011;2088;51.032;7.082;2023-12-20T13:45:28;4.13;;;2.57;;
4148;SDS011;2088;51.032;7.082;2023-12-20T13:47:56;5.87;;;2.77;;
4148;SDS011;2088;51.032;7.082;2023-12-20T13:50:23;4.50;;;2.30;;
4148;SDS011;2088;51.032;7.082;2023-12-20T13:52:51;10.73;;;2.60;;
4148;SDS011;2088;51.032;7.082;2023-12-20T13:55:18;9.80;;;1.97;;
4148;SDS011;2088;51.032;7.082;2023-12-20T13:57:50;8.63;;;2.57;;
4148;SDS011;2088;51.032;7.082;2023-12-20T14:00:17;4.63;;;2.00;;
4148;SDS011;2088;51.032;7.082;2023-12-20T14:02:44;6.23;;;2.43;;
4148;SDS011;2088;51.032;7.082;2023-12-20T14:05:12;3.80;;;2.40;;
4148;SDS011;2088;51.032;7.082;2023-12-20T14:07:42;13.27;;;3.93;;
4148;SDS011;2088;51.032;7.082;2023-12-20T14:10:10;7.20;;;2.30;;
4148;SDS011;2088;51.032;7.082;2023-12-20T14:12:38;12.83;;;2.80;;
4148;SDS011;2088;51.032;7.082;2023-12-20T14:15:05;7.33;;;2.40;;
4148;SDS011;2088;51.032;7.082;2023-12-20T14:17:35;2.77;;;1.63;;
4148;SDS011;2088;51.032;7.082;2023-12-20T14:20:03;11.07;;;2.77;;
4148;SDS011;2088;51.032;7.082;2023-12-20T14:22:32;3.40;;;1.63;;
4148;SDS011;2088;51.032;7.082;2023-12-20T14:24:59;5.47;;;2.13;;
4148;SDS011;2088;51.032;7.082;2023-12-20T14:27:26;11.10;;;3.10;;
4148;SDS011;2088;51.032;7.082;2023-12-20T14:29:54;2.90;;;1.93;;
4148;SDS011;2088;51.032;7.082;2023-12-20T14:32:21;9.57;;;2.10;;
4148;SDS011;2088;51.032;7.082;2023-12-20T14:34:48;3.73;;;1.80;;
4148;SDS011;2088;51.032;7.082;2023-12-20T14:37:15;5.63;;;2.00;;
4148;SDS011;2088;51.032;7.082;2023-12-20T14:39:44;6.00;;;2.20;;
4148;SDS011;2088;51.032;7.082;2023-12-20T14:42:11;6.03;;;1.80;;
4148;SDS011;2088;51.032;7.082;2023-12-20T14:44:39;12.67;;;2.47;;
4148;SDS011;2088;51.032;7.082;2023-12-20T14:47:06;3.47;;;2.10;;
4148;SDS011;2088;51.032;7.082;2023-12-20T14:49:33;3.20;;;1.90;;
4148;SDS011;2088;51.032;7.082;2023-12-20T14:52:02;1.40;;;1.30;;
4148;SDS011;2088;51.032;7.082;2023-12-20T14:54:30;11.37;;;2.07;;
4148;SDS011;2088;51.032;7.082;2023-12-20T14:56:59;7.73;;;2.90;;
4148;SDS011;2088;51.032;7.082;2023-12-20T14:59:26;5.17;;;2.00;;
4148;SDS011;2088;51.032;7.082;2023-12-20T15:01:53;7.83;;;2.20;;
4148;SDS011;2088;51.032;7.082;2023-12-20T15:04:21;6.27;;;2.83;;
4148;SDS011;2088;51.032;7.082;2023-12-20T15:06:53;11.83;;;1.67;;
4148;SDS011;2088;51.032;7.082;2023-12-20T15:09:20;5.37;;;2.40;;
4148;SDS011;2088;51.032;7.082;2023-12-20T15:11:47;8.97;;;3.07;;
4148;SDS011;2088;51.032;7.082;2023-12-20T15:14:16;4.27;;;1.73;;